MSC Maeva — H9TF — position and weather

sailwx.info

Track history (hours):
 
Tides and Currents Weather Stations Pressure Air Temp Water Temp Dewpoint Dewpoint Depression Visibility Wind Speed Wind Dir Waves Ship Positions

MSC Maeva

Last reported at 2017-Sep-22 01:58 UTC. Time now 2017-Sep-22 03:01 UTC.
Position N 32°41' W 079°44'.

Type: Ship (hazmat cat A). MMSI: 371851000.

Date/timePositionNaut miles runAvg speedWind from/ knotsBaromVisibWave heightAir tempDewpointWater temp
2017-Sep-22 01:58N 32°41' W 079°44'15 5.5
2017-Sep-21 23:14N 32°31' W 079°32'40 2.2
2017-Sep-21 04:56N 32°04' W 080°07'10 9.0
2017-Sep-21 03:49N 32°01' W 080°18'4 9.0
2017-Sep-21 03:19N 32°00' W 080°24'9 9.0
2017-Sep-21 02:16N 31°58' W 080°34'4 8.5
2017-Sep-21 01:51N 31°57' W 080°39'3 8.1
2017-Sep-21 01:30N 31°58' W 080°42'611.3
2017-Sep-21 01:00N 32°00' W 080°48'4 8.8
2017-Sep-21 00:30N 32°02' W 080°53'510.0
2017-Sep-21 00:00N 32°04' W 080°58'4 8.1
2017-Sep-20 23:30N 32°05' W 081°03'3 5.7
2017-Sep-20 23:00N 32°05' W 081°06'2 4.7
2017-Sep-20 22:30N 32°07' W 081°08'0 0.3
2017-Sep-20 21:57N 32°07' W 081°08'0 0.0
2017-Sep-20 21:21N 32°07' W 081°08'0 0.0
2017-Sep-20 20:57N 32°07' W 081°08'0 0.0
2017-Sep-20 20:27N 32°07' W 081°08'0 0.0
2017-Sep-20 19:51N 32°07' W 081°08'0 0.0
2017-Sep-20 19:27N 32°07' W 081°08'0 0.0
2017-Sep-20 18:57N 32°07' W 081°08'0 0.0
2017-Sep-20 18:27N 32°07' W 081°08'0 0.0
2017-Sep-20 17:57N 32°07' W 081°08'0 0.0
2017-Sep-20 17:27N 32°07' W 081°08'0 0.0
2017-Sep-20 16:51N 32°07' W 081°08'0 0.0
2017-Sep-20 16:27N 32°07' W 081°08'0 0.0
2017-Sep-20 15:57N 32°07' W 081°08'0 0.0
2017-Sep-20 15:27N 32°07' W 081°08'0 0.0
2017-Sep-20 14:57N 32°07' W 081°08'0 0.0
2017-Sep-20 13:57N 32°07' W 081°08'0 0.0
2017-Sep-20 13:27N 32°07' W 081°08'0 0.0
2017-Sep-20 12:57N 32°07' W 081°08'0 0.0
2017-Sep-20 12:27N 32°07' W 081°08'0 0.0
2017-Sep-20 11:57N 32°07' W 081°08'0 0.0
2017-Sep-20 11:27N 32°07' W 081°08'0 0.0
2017-Sep-20 10:57N 32°07' W 081°08'0 0.0
2017-Sep-20 10:27N 32°07' W 081°08'0 0.0
2017-Sep-20 09:57N 32°07' W 081°08'0 0.0
2017-Sep-20 09:27N 32°07' W 081°08'0 0.0
2017-Sep-20 08:51N 32°07' W 081°08'0 0.0
2017-Sep-20 08:27N 32°07' W 081°08'0 0.0
2017-Sep-20 07:57N 32°07' W 081°08'0 0.0
2017-Sep-20 07:21N 32°07' W 081°08'0 0.0
2017-Sep-20 06:51N 32°07' W 081°08'0 0.0
2017-Sep-20 06:27N 32°07' W 081°08'0 0.0
2017-Sep-20 05:57N 32°07' W 081°08'0 0.0
2017-Sep-20 05:21N 32°07' W 081°08'0 0.0
2017-Sep-20 05:00N 32°07' W 081°08'1 1.6
2017-Sep-20 04:30N 32°08' W 081°08'2 4.0
2017-Sep-20 04:00N 32°06' W 081°07'2 4.8
2017-Sep-20 03:30N 32°05' W 081°05'3 6.9
2017-Sep-20 03:00N 32°06' W 081°01'611.7
2017-Sep-20 02:31N 32°02' W 080°55'612.5
2017-Sep-20 02:00N 32°01' W 080°48'815.1
2017-Sep-20 01:30N 31°57' W 080°41'5 9.7
2017-Sep-20 01:00N 31°56' W 080°35'610.9
2017-Sep-20 00:26N 31°58' W 080°28'2 3.9
2017-Sep-19 23:53N 31°59' W 080°26'0 0.1
2017-Sep-19 23:29N 31°59' W 080°26'0 0.0
2017-Sep-19 22:59N 31°59' W 080°26'0 0.0
2017-Sep-19 22:23N 31°59' W 080°26'0 0.0
2017-Sep-19 21:59N 31°59' W 080°26'0 0.0
2017-Sep-19 21:23N 31°59' W 080°26'0 0.0
2017-Sep-19 20:53N 31°59' W 080°26'0 0.0
2017-Sep-19 20:29N 31°59' W 080°26'0 0.0
2017-Sep-19 19:59N 31°59' W 080°26'0 0.1
2017-Sep-19 17:53N 31°59' W 080°26'0 0.2
2017-Sep-19 17:23N 31°59' W 080°26'0 0.1
2017-Sep-19 16:59N 31°59' W 080°26'0 0.0
2017-Sep-19 16:29N 31°59' W 080°26'0 0.0
2017-Sep-19 15:47N 31°59' W 080°26'0 0.0
2017-Sep-19 15:29N 31°59' W 080°26'0 0.0
2017-Sep-19 14:59N 31°59' W 080°26'0 0.0
2017-Sep-19 14:29N 31°59' W 080°26'0 0.0
2017-Sep-19 13:59N 31°59' W 080°26'0 0.2
2017-Sep-19 13:11N 31°59' W 080°26'0 0.7
2017-Sep-19 12:59N 31°59' W 080°26'0 0.2
2017-Sep-19 12:23N 31°59' W 080°26'0 0.0
2017-Sep-19 11:53N 31°59' W 080°26'0 0.0
2017-Sep-19 11:29N 31°59' W 080°26'0 0.0
2017-Sep-19 10:59N 31°59' W 080°26'0 0.0
2017-Sep-19 10:29N 31°59' W 080°26'0 0.0
2017-Sep-19 09:59N 31°59' W 080°26'0 0.0
2017-Sep-19 09:17N 31°59' W 080°26'0 0.0
2017-Sep-19 08:41N 31°59' W 080°26'0 0.0
2017-Sep-19 08:29N 31°59' W 080°26'0 0.0
2017-Sep-19 07:59N 31°59' W 080°26'0 0.0
2017-Sep-19 07:29N 31°59' W 080°26'0 0.0
2017-Sep-19 06:59N 31°59' W 080°26'0 0.0
2017-Sep-19 06:29N 31°59' W 080°26'0 0.2
2017-Sep-19 05:29N 31°59' W 080°26'0 0.2
2017-Sep-19 04:59N 31°59' W 080°26'0 0.1
2017-Sep-19 04:29N 31°59' W 080°26'0 0.1
2017-Sep-19 03:59N 31°59' W 080°26'0 0.0
2017-Sep-19 03:29N 31°59' W 080°26'0 0.1
2017-Sep-19 02:53N 31°59' W 080°26'0 0.3
2017-Sep-19 02:17N 31°59' W 080°26'0 0.2
2017-Sep-19 01:47N 31°59' W 080°26'0 0.0
2017-Sep-19 01:17N 31°59' W 080°26'0 0.0
2017-Sep-19 00:59N 31°59' W 080°26'0 0.0
2017-Sep-19 00:29N 31°59' W 080°26'0 0.0
2017-Sep-18 23:59N 31°59' W 080°26'0 0.0
2017-Sep-18 23:28N 31°59' W 080°26'0 0.0
2017-Sep-18 22:58N 31°59' W 080°26'0 0.0
2017-Sep-18 22:28N 31°59' W 080°26'0 0.0
2017-Sep-18 21:58N 31°59' W 080°26'0 0.0
2017-Sep-18 12:28N 31°59' W 080°26'0 0.0
2017-Sep-18 11:28N 31°59' W 080°26'0 0.0
2017-Sep-18 03:13N 31°59' W 080°26'0 0.3
2017-Sep-18 03:00N 31°59' W 080°26'2 4.0
2017-Sep-18 02:31N 32°00' W 080°24'4 7.7
2017-Sep-18 02:01N 32°02' W 080°20'4 7.9
2017-Sep-18 01:30N 32°03' W 080°16'4 7.8
2017-Sep-18 01:01N 32°05' W 080°11'4 7.8
2017-Sep-18 00:30N 32°06' W 080°07'4 7.9
2017-Sep-18 00:01N 32°07' W 080°03'4 7.9
2017-Sep-17 23:30N 32°08' W 079°58'32110.6
2017-Sep-16 17:15N 35°31' W 074°59'311.2
2017-Sep-16 17:00N 35°34' W 074°58'611.2
2017-Sep-16 16:30N 35°39' W 074°56'611.4
2017-Sep-16 16:00N 35°45' W 074°54'611.4
2017-Sep-16 15:31N 35°50' W 074°52'611.6
2017-Sep-16 15:00N 35°56' W 074°50'611.8
2017-Sep-16 14:30N 36°02' W 074°48'612.3
2017-Sep-16 13:59N 36°08' W 074°46'816.3
2017-Sep-16 13:30N 36°15' W 074°43'7813.5
2017-Sep-16 07:43N 37°30' W 074°15'312.8
2017-Sep-16 07:30N 37°33' W 074°14'612.8
2017-Sep-16 07:00N 37°39' W 074°12'612.8
2017-Sep-16 06:30N 37°45' W 074°10'713.1
2017-Sep-16 06:00N 37°51' W 074°08'2912.7
2017-Sep-16 03:42N 38°20' W 074°03'412.6
2017-Sep-16 03:24N 38°24' W 074°03'512.6
2017-Sep-16 03:00N 38°29' W 074°03'612.6
2017-Sep-16 02:30N 38°35' W 074°03'612.9
2017-Sep-16 02:00N 38°42' W 074°03'612.9
2017-Sep-16 01:30N 38°48' W 074°03'612.6
2017-Sep-16 01:00N 38°54' W 074°03'612.0
2017-Sep-16 00:30N 39°00' W 074°02'611.8
2017-Sep-16 00:00N 39°06' W 074°00'711.7
2017-Sep-15 23:25N 39°13' W 073°58'511.8
2017-Sep-15 23:00N 39°17' W 073°56'611.7
2017-Sep-15 22:30N 39°23' W 073°54'611.6
2017-Sep-15 22:00N 39°29' W 073°53'611.7
2017-Sep-15 21:30N 39°34' W 073°52'611.5
2017-Sep-15 21:00N 39°40' W 073°52'611.3
2017-Sep-15 20:30N 39°46' W 073°52'611.4
2017-Sep-15 20:00N 39°52' W 073°51'611.4
2017-Sep-15 19:30N 39°57' W 073°51'611.3
2017-Sep-15 19:00N 40°03' W 073°51'1811.2
2017-Sep-15 17:24N 40°21' W 073°49'410.9
2017-Sep-15 17:00N 40°25' W 073°48'1011.2
2017-Sep-15 16:08N 40°31' W 073°58'316.4
2017-Sep-15 15:58N 40°32' W 074°01'714.6
2017-Sep-15 15:30N 40°39' W 074°04'3 6.7
2017-Sep-15 15:00N 40°39' W 074°08'2 3.6
2017-Sep-15 14:30N 40°40' W 074°08'1 1.2
2017-Sep-15 13:59N 40°41' W 074°09'0 0.0
2017-Sep-15 13:29N 40°41' W 074°09'0 0.0
2017-Sep-15 12:59N 40°41' W 074°09'0 0.0
2017-Sep-15 12:29N 40°41' W 074°09'0 0.0
2017-Sep-15 11:56N 40°41' W 074°09'0 0.0
2017-Sep-15 11:29N 40°41' W 074°09'0 0.0
2017-Sep-15 10:58N 40°41' W 074°09'0 0.0
2017-Sep-15 10:28N 40°41' W 074°09'0 0.0
2017-Sep-15 09:58N 40°41' W 074°09'0 0.0
2017-Sep-15 09:28N 40°41' W 074°09'0 0.0
2017-Sep-15 08:58N 40°41' W 074°09'0 0.0
2017-Sep-15 08:28N 40°41' W 074°09'0 0.0
2017-Sep-15 07:58N 40°41' W 074°09'0 0.0
2017-Sep-15 07:28N 40°41' W 074°09'0 0.0
2017-Sep-15 06:58N 40°41' W 074°09'0 0.0
2017-Sep-15 06:28N 40°41' W 074°09'0 0.0
2017-Sep-15 05:58N 40°41' W 074°09'0 0.0
2017-Sep-15 05:28N 40°41' W 074°09'0 0.0
2017-Sep-15 04:58N 40°41' W 074°09'0 0.0
2017-Sep-15 04:28N 40°41' W 074°09'0 0.0
2017-Sep-15 03:58N 40°41' W 074°09'0 0.0
2017-Sep-15 03:28N 40°41' W 074°09'0 0.0
2017-Sep-15 02:58N 40°41' W 074°09'0 0.0
2017-Sep-15 02:28N 40°41' W 074°09'0 0.0
2017-Sep-15 01:58N 40°41' W 074°09'0 0.0
2017-Sep-15 01:28N 40°41' W 074°09'0 0.0
2017-Sep-15 00:58N 40°41' W 074°09'0 0.0
2017-Sep-15 00:28N 40°41' W 074°09'0 0.0
2017-Sep-14 23:58N 40°41' W 074°09'0 0.0
2017-Sep-14 23:28N 40°41' W 074°09'0 0.0
2017-Sep-14 22:55N 40°41' W 074°09'0 0.0
2017-Sep-14 22:28N 40°41' W 074°09'0 0.0
2017-Sep-14 21:58N 40°41' W 074°09'0 0.0
2017-Sep-14 21:28N 40°41' W 074°09'0 0.0
2017-Sep-14 20:58N 40°41' W 074°09'0 0.0
2017-Sep-14 20:28N 40°41' W 074°09'0 0.0
2017-Sep-14 19:58N 40°41' W 074°09'0 0.0
2017-Sep-14 19:28N 40°41' W 074°09'0 0.0
2017-Sep-14 18:58N 40°41' W 074°09'0 0.0
2017-Sep-14 18:28N 40°41' W 074°09'0 0.0
2017-Sep-14 17:58N 40°41' W 074°09'0 0.0
2017-Sep-14 17:28N 40°41' W 074°09'0 0.0
2017-Sep-14 16:58N 40°41' W 074°09'0 0.0
2017-Sep-14 16:28N 40°41' W 074°09'0 0.0
2017-Sep-14 15:58N 40°41' W 074°09'0 0.0
2017-Sep-14 15:28N 40°41' W 074°09'0 0.0
2017-Sep-14 14:58N 40°41' W 074°09'0 0.0
2017-Sep-14 14:28N 40°41' W 074°09'0 0.0
2017-Sep-14 13:58N 40°41' W 074°09'0 0.0
2017-Sep-14 13:28N 40°41' W 074°09'0 0.0
2017-Sep-14 12:58N 40°41' W 074°09'0 0.0
2017-Sep-14 12:28N 40°41' W 074°09'0 0.0
2017-Sep-14 11:58N 40°41' W 074°09'0 0.0
2017-Sep-14 11:28N 40°41' W 074°09'0 0.0
2017-Sep-14 10:58N 40°41' W 074°09'0 0.0
2017-Sep-14 10:28N 40°41' W 074°09'0 0.0
2017-Sep-14 09:58N 40°41' W 074°09'0 0.0
2017-Sep-14 09:28N 40°41' W 074°09'0 0.0
2017-Sep-14 08:58N 40°41' W 074°09'0 0.0
2017-Sep-14 08:28N 40°41' W 074°09'0 0.0
2017-Sep-14 07:58N 40°41' W 074°09'0 0.0
2017-Sep-14 07:28N 40°41' W 074°09'0 0.0
2017-Sep-14 06:58N 40°41' W 074°09'0 0.0
2017-Sep-14 06:28N 40°41' W 074°09'0 0.0
2017-Sep-14 05:58N 40°41' W 074°09'0 0.0
2017-Sep-14 05:28N 40°41' W 074°09'0 0.0
2017-Sep-14 04:58N 40°41' W 074°09'0 0.0
2017-Sep-14 04:28N 40°41' W 074°09'0 0.0
2017-Sep-14 03:58N 40°41' W 074°09'0 0.0
2017-Sep-14 03:31N 40°41' W 074°09'0 0.0
2017-Sep-14 03:01N 40°41' W 074°09'0 0.0
2017-Sep-14 02:31N 40°41' W 074°09'0 0.0
2017-Sep-14 02:00N 40°41' W 074°09'0 0.0
2017-Sep-14 01:30N 40°41' W 074°09'0 0.0
2017-Sep-14 01:00N 40°41' W 074°09'0 0.0
2017-Sep-14 00:27N 40°41' W 074°09'0 0.0
2017-Sep-14 00:00N 40°41' W 074°09'0 0.0
2017-Sep-13 23:30N 40°41' W 074°09'0 0.0
2017-Sep-13 23:00N 40°41' W 074°09'0 0.0
2017-Sep-13 22:30N 40°41' W 074°09'0 0.0
2017-Sep-13 22:00N 40°41' W 074°09'0 0.0
2017-Sep-13 21:30N 40°41' W 074°09'0 0.0
2017-Sep-13 21:00N 40°41' W 074°09'1 1.5
2017-Sep-13 20:30N 40°40' W 074°08'2 3.5
2017-Sep-13 20:00N 40°39' W 074°07'3 5.9
2017-Sep-13 19:30N 40°39' W 074°03'4 9.0
2017-Sep-13 19:01N 40°34' W 074°02'612.8
2017-Sep-13 18:30N 40°30' W 073°56'612.5
2017-Sep-13 18:00N 40°27' W 073°48'3 1.1
2017-Sep-13 15:45N 40°29' W 073°46'0 0.0
2017-Sep-13 15:30N 40°29' W 073°46'0 0.0
2017-Sep-13 15:00N 40°29' W 073°46'0 0.1
2017-Sep-13 14:30N 40°29' W 073°46'0 0.4
2017-Sep-13 14:00N 40°29' W 073°46'3 5.9
2017-Sep-13 13:31N 40°27' W 073°43'5 9.4
2017-Sep-13 13:00N 40°28' W 073°36'612.9
2017-Sep-13 12:30N 40°28' W 073°28'613.0
2017-Sep-13 12:00N 40°29' W 073°19'713.8
2017-Sep-13 11:30N 40°29' W 073°10'713.7
2017-Sep-13 11:00N 40°30' W 073°02'713.5
2017-Sep-13 10:30N 40°30' W 072°53'713.7
2017-Sep-13 10:00N 40°30' W 072°44'713.9
2017-Sep-13 09:30N 40°30' W 072°35'713.9
2017-Sep-13 09:00N 40°30' W 072°25'713.6
2017-Sep-13 08:30N 40°31' W 072°16'713.5
2017-Sep-13 08:01N 40°31' W 072°08'713.6
2017-Sep-13 07:30N 40°31' W 071°59'713.3
2017-Sep-13 07:00N 40°31' W 071°50'713.5
2017-Sep-13 06:30N 40°32' W 071°41'713.6
2017-Sep-13 06:00N 40°32' W 071°32'713.5
2017-Sep-13 05:30N 40°32' W 071°23'713.5
2017-Sep-13 05:00N 40°32' W 071°14'713.2
2017-Sep-13 04:30N 40°32' W 071°06'713.7
2017-Sep-13 04:00N 40°32' W 070°57'713.7
2017-Sep-13 03:30N 40°33' W 070°48'713.4
2017-Sep-13 03:00N 40°33' W 070°39'713.6
2017-Sep-13 02:30N 40°33' W 070°30'4 8.0
2017-Sep-13 02:00N 40°33' W 070°25'815.4
2017-Sep-13 01:30N 40°33' W 070°14'815.9
2017-Sep-13 01:01N 40°34' W 070°04'816.2
2017-Sep-13 00:31N 40°34' W 069°53'815.8
2017-Sep-13 00:01N 40°34' W 069°43'815.4
2017-Sep-12 23:30N 40°34' W 069°33'715.0
2017-Sep-12 23:00N 40°34' W 069°23'815.0
2017-Sep-12 22:31N 40°34' W 069°13'814.9
2017-Sep-12 21:58N 40°35' W 069°02'  
Track history (hours):
 
Tides and Currents Weather Stations Pressure Air Temp Water Temp Dewpoint Dewpoint Depression Visibility Wind Speed Wind Dir Waves Ship Positions

MSC Maeva

Last reported at 2017-Sep-22 01:58 UTC. Time now 2017-Sep-22 03:01 UTC.
Position N 32°41' W 079°44'.

Type: Ship (hazmat cat A). MMSI: 371851000.

Date/timePositionNaut miles runAvg speedWind from/ knotsBaromVisibWave heightAir tempDewpointWater temp
2017-Sep-22 01:58N 32°41' W 079°44'15 5.5
2017-Sep-21 23:14N 32°31' W 079°32'40 2.2
2017-Sep-21 04:56N 32°04' W 080°07'10 9.0
2017-Sep-21 03:49N 32°01' W 080°18'4 9.0
2017-Sep-21 03:19N 32°00' W 080°24'9 9.0
2017-Sep-21 02:16N 31°58' W 080°34'4 8.5
2017-Sep-21 01:51N 31°57' W 080°39'3 8.1
2017-Sep-21 01:30N 31°58' W 080°42'611.3
2017-Sep-21 01:00N 32°00' W 080°48'4 8.8
2017-Sep-21 00:30N 32°02' W 080°53'510.0
2017-Sep-21 00:00N 32°04' W 080°58'4 8.1
2017-Sep-20 23:30N 32°05' W 081°03'3 5.7
2017-Sep-20 23:00N 32°05' W 081°06'2 4.7
2017-Sep-20 22:30N 32°07' W 081°08'0 0.3
2017-Sep-20 21:57N 32°07' W 081°08'0 0.0
2017-Sep-20 21:21N 32°07' W 081°08'0 0.0
2017-Sep-20 20:57N 32°07' W 081°08'0 0.0
2017-Sep-20 20:27N 32°07' W 081°08'0 0.0
2017-Sep-20 19:51N 32°07' W 081°08'0 0.0
2017-Sep-20 19:27N 32°07' W 081°08'0 0.0
2017-Sep-20 18:57N 32°07' W 081°08'0 0.0
2017-Sep-20 18:27N 32°07' W 081°08'0 0.0
2017-Sep-20 17:57N 32°07' W 081°08'0 0.0
2017-Sep-20 17:27N 32°07' W 081°08'0 0.0
2017-Sep-20 16:51N 32°07' W 081°08'0 0.0
2017-Sep-20 16:27N 32°07' W 081°08'0 0.0
2017-Sep-20 15:57N 32°07' W 081°08'0 0.0
2017-Sep-20 15:27N 32°07' W 081°08'0 0.0
2017-Sep-20 14:57N 32°07' W 081°08'0 0.0
2017-Sep-20 13:57N 32°07' W 081°08'0 0.0
2017-Sep-20 13:27N 32°07' W 081°08'0 0.0
2017-Sep-20 12:57N 32°07' W 081°08'0 0.0
2017-Sep-20 12:27N 32°07' W 081°08'0 0.0
2017-Sep-20 11:57N 32°07' W 081°08'0 0.0
2017-Sep-20 11:27N 32°07' W 081°08'0 0.0
2017-Sep-20 10:57N 32°07' W 081°08'0 0.0
2017-Sep-20 10:27N 32°07' W 081°08'0 0.0
2017-Sep-20 09:57N 32°07' W 081°08'0 0.0
2017-Sep-20 09:27N 32°07' W 081°08'0 0.0
2017-Sep-20 08:51N 32°07' W 081°08'0 0.0
2017-Sep-20 08:27N 32°07' W 081°08'0 0.0
2017-Sep-20 07:57N 32°07' W 081°08'0 0.0
2017-Sep-20 07:21N 32°07' W 081°08'0 0.0
2017-Sep-20 06:51N 32°07' W 081°08'0 0.0
2017-Sep-20 06:27N 32°07' W 081°08'0 0.0
2017-Sep-20 05:57N 32°07' W 081°08'0 0.0
2017-Sep-20 05:21N 32°07' W 081°08'0 0.0
2017-Sep-20 05:00N 32°07' W 081°08'1 1.6
2017-Sep-20 04:30N 32°08' W 081°08'2 4.0
2017-Sep-20 04:00N 32°06' W 081°07'2 4.8
2017-Sep-20 03:30N 32°05' W 081°05'3 6.9
2017-Sep-20 03:00N 32°06' W 081°01'611.7
2017-Sep-20 02:31N 32°02' W 080°55'612.5
2017-Sep-20 02:00N 32°01' W 080°48'815.1
2017-Sep-20 01:30N 31°57' W 080°41'5 9.7
2017-Sep-20 01:00N 31°56' W 080°35'610.9
2017-Sep-20 00:26N 31°58' W 080°28'2 3.9
2017-Sep-19 23:53N 31°59' W 080°26'0 0.1
2017-Sep-19 23:29N 31°59' W 080°26'0 0.0
2017-Sep-19 22:59N 31°59' W 080°26'0 0.0
2017-Sep-19 22:23N 31°59' W 080°26'0 0.0
2017-Sep-19 21:59N 31°59' W 080°26'0 0.0
2017-Sep-19 21:23N 31°59' W 080°26'0 0.0
2017-Sep-19 20:53N 31°59' W 080°26'0 0.0
2017-Sep-19 20:29N 31°59' W 080°26'0 0.0
2017-Sep-19 19:59N 31°59' W 080°26'0 0.1
2017-Sep-19 17:53N 31°59' W 080°26'0 0.2
2017-Sep-19 17:23N 31°59' W 080°26'0 0.1
2017-Sep-19 16:59N 31°59' W 080°26'0 0.0
2017-Sep-19 16:29N 31°59' W 080°26'0 0.0
2017-Sep-19 15:47N 31°59' W 080°26'0 0.0
2017-Sep-19 15:29N 31°59' W 080°26'0 0.0
2017-Sep-19 14:59N 31°59' W 080°26'0 0.0
2017-Sep-19 14:29N 31°59' W 080°26'0 0.0
2017-Sep-19 13:59N 31°59' W 080°26'0 0.2
2017-Sep-19 13:11N 31°59' W 080°26'0 0.7
2017-Sep-19 12:59N 31°59' W 080°26'0 0.2
2017-Sep-19 12:23N 31°59' W 080°26'0 0.0
2017-Sep-19 11:53N 31°59' W 080°26'0 0.0
2017-Sep-19 11:29N 31°59' W 080°26'0 0.0
2017-Sep-19 10:59N 31°59' W 080°26'0 0.0
2017-Sep-19 10:29N 31°59' W 080°26'0 0.0
2017-Sep-19 09:59N 31°59' W 080°26'0 0.0
2017-Sep-19 09:17N 31°59' W 080°26'0 0.0
2017-Sep-19 08:41N 31°59' W 080°26'0 0.0
2017-Sep-19 08:29N 31°59' W 080°26'0 0.0
2017-Sep-19 07:59N 31°59' W 080°26'0 0.0
2017-Sep-19 07:29N 31°59' W 080°26'0 0.0
2017-Sep-19 06:59N 31°59' W 080°26'0 0.0
2017-Sep-19 06:29N 31°59' W 080°26'0 0.2
2017-Sep-19 05:29N 31°59' W 080°26'0 0.2
2017-Sep-19 04:59N 31°59' W 080°26'0 0.1
2017-Sep-19 04:29N 31°59' W 080°26'0 0.1
2017-Sep-19 03:59N 31°59' W 080°26'0 0.0
2017-Sep-19 03:29N 31°59' W 080°26'0 0.1
2017-Sep-19 02:53N 31°59' W 080°26'0 0.3
2017-Sep-19 02:17N 31°59' W 080°26'0 0.2
2017-Sep-19 01:47N 31°59' W 080°26'0 0.0
2017-Sep-19 01:17N 31°59' W 080°26'0 0.0
2017-Sep-19 00:59N 31°59' W 080°26'0 0.0
2017-Sep-19 00:29N 31°59' W 080°26'0 0.0
2017-Sep-18 23:59N 31°59' W 080°26'0 0.0
2017-Sep-18 23:28N 31°59' W 080°26'0 0.0
2017-Sep-18 22:58N 31°59' W 080°26'0 0.0
2017-Sep-18 22:28N 31°59' W 080°26'0 0.0
2017-Sep-18 21:58N 31°59' W 080°26'0 0.0
2017-Sep-18 12:28N 31°59' W 080°26'0 0.0
2017-Sep-18 11:28N 31°59' W 080°26'0 0.0
2017-Sep-18 03:13N 31°59' W 080°26'0 0.3
2017-Sep-18 03:00N 31°59' W 080°26'2 4.0
2017-Sep-18 02:31N 32°00' W 080°24'4 7.7
2017-Sep-18 02:01N 32°02' W 080°20'4 7.9
2017-Sep-18 01:30N 32°03' W 080°16'4 7.8
2017-Sep-18 01:01N 32°05' W 080°11'4 7.8
2017-Sep-18 00:30N 32°06' W 080°07'4 7.9
2017-Sep-18 00:01N 32°07' W 080°03'4 7.9
2017-Sep-17 23:30N 32°08' W 079°58'32110.6
2017-Sep-16 17:15N 35°31' W 074°59'311.2
2017-Sep-16 17:00N 35°34' W 074°58'611.2
2017-Sep-16 16:30N 35°39' W 074°56'611.4
2017-Sep-16 16:00N 35°45' W 074°54'611.4
2017-Sep-16 15:31N 35°50' W 074°52'611.6
2017-Sep-16 15:00N 35°56' W 074°50'611.8
2017-Sep-16 14:30N 36°02' W 074°48'612.3
2017-Sep-16 13:59N 36°08' W 074°46'816.3
2017-Sep-16 13:30N 36°15' W 074°43'7813.5
2017-Sep-16 07:43N 37°30' W 074°15'312.8
2017-Sep-16 07:30N 37°33' W 074°14'612.8
2017-Sep-16 07:00N 37°39' W 074°12'612.8
2017-Sep-16 06:30N 37°45' W 074°10'713.1
2017-Sep-16 06:00N 37°51' W 074°08'2912.7
2017-Sep-16 03:42N 38°20' W 074°03'412.6
2017-Sep-16 03:24N 38°24' W 074°03'512.6
2017-Sep-16 03:00N 38°29' W 074°03'612.6
2017-Sep-16 02:30N 38°35' W 074°03'612.9
2017-Sep-16 02:00N 38°42' W 074°03'612.9
2017-Sep-16 01:30N 38°48' W 074°03'612.6
2017-Sep-16 01:00N 38°54' W 074°03'612.0
2017-Sep-16 00:30N 39°00' W 074°02'611.8
2017-Sep-16 00:00N 39°06' W 074°00'711.7
2017-Sep-15 23:25N 39°13' W 073°58'511.8
2017-Sep-15 23:00N 39°17' W 073°56'611.7
2017-Sep-15 22:30N 39°23' W 073°54'611.6
2017-Sep-15 22:00N 39°29' W 073°53'611.7
2017-Sep-15 21:30N 39°34' W 073°52'611.5
2017-Sep-15 21:00N 39°40' W 073°52'611.3
2017-Sep-15 20:30N 39°46' W 073°52'611.4
2017-Sep-15 20:00N 39°52' W 073°51'611.4
2017-Sep-15 19:30N 39°57' W 073°51'611.3
2017-Sep-15 19:00N 40°03' W 073°51'1811.2
2017-Sep-15 17:24N 40°21' W 073°49'410.9
2017-Sep-15 17:00N 40°25' W 073°48'1011.2
2017-Sep-15 16:08N 40°31' W 073°58'316.4
2017-Sep-15 15:58N 40°32' W 074°01'714.6
2017-Sep-15 15:30N 40°39' W 074°04'3 6.7
2017-Sep-15 15:00N 40°39' W 074°08'2 3.6
2017-Sep-15 14:30N 40°40' W 074°08'1 1.2
2017-Sep-15 13:59N 40°41' W 074°09'0 0.0
2017-Sep-15 13:29N 40°41' W 074°09'0 0.0
2017-Sep-15 12:59N 40°41' W 074°09'0 0.0
2017-Sep-15 12:29N 40°41' W 074°09'0 0.0
2017-Sep-15 11:56N 40°41' W 074°09'0 0.0
2017-Sep-15 11:29N 40°41' W 074°09'0 0.0
2017-Sep-15 10:58N 40°41' W 074°09'0 0.0
2017-Sep-15 10:28N 40°41' W 074°09'0 0.0
2017-Sep-15 09:58N 40°41' W 074°09'0 0.0
2017-Sep-15 09:28N 40°41' W 074°09'0 0.0
2017-Sep-15 08:58N 40°41' W 074°09'0 0.0
2017-Sep-15 08:28N 40°41' W 074°09'0 0.0
2017-Sep-15 07:58N 40°41' W 074°09'0 0.0
2017-Sep-15 07:28N 40°41' W 074°09'0 0.0
2017-Sep-15 06:58N 40°41' W 074°09'0 0.0
2017-Sep-15 06:28N 40°41' W 074°09'0 0.0
2017-Sep-15 05:58N 40°41' W 074°09'0 0.0
2017-Sep-15 05:28N 40°41' W 074°09'0 0.0
2017-Sep-15 04:58N 40°41' W 074°09'0 0.0
2017-Sep-15 04:28N 40°41' W 074°09'0 0.0
2017-Sep-15 03:58N 40°41' W 074°09'0 0.0
2017-Sep-15 03:28N 40°41' W 074°09'0 0.0
2017-Sep-15 02:58N 40°41' W 074°09'0 0.0
2017-Sep-15 02:28N 40°41' W 074°09'0 0.0
2017-Sep-15 01:58N 40°41' W 074°09'0 0.0
2017-Sep-15 01:28N 40°41' W 074°09'0 0.0
2017-Sep-15 00:58N 40°41' W 074°09'0 0.0
2017-Sep-15 00:28N 40°41' W 074°09'0 0.0
2017-Sep-14 23:58N 40°41' W 074°09'0 0.0
2017-Sep-14 23:28N 40°41' W 074°09'0 0.0
2017-Sep-14 22:55N 40°41' W 074°09'0 0.0
2017-Sep-14 22:28N 40°41' W 074°09'0 0.0
2017-Sep-14 21:58N 40°41' W 074°09'0 0.0
2017-Sep-14 21:28N 40°41' W 074°09'0 0.0
2017-Sep-14 20:58N 40°41' W 074°09'0 0.0
2017-Sep-14 20:28N 40°41' W 074°09'0 0.0
2017-Sep-14 19:58N 40°41' W 074°09'0 0.0
2017-Sep-14 19:28N 40°41' W 074°09'0 0.0
2017-Sep-14 18:58N 40°41' W 074°09'0 0.0
2017-Sep-14 18:28N 40°41' W 074°09'0 0.0
2017-Sep-14 17:58N 40°41' W 074°09'0 0.0
2017-Sep-14 17:28N 40°41' W 074°09'0 0.0
2017-Sep-14 16:58N 40°41' W 074°09'0 0.0
2017-Sep-14 16:28N 40°41' W 074°09'0 0.0
2017-Sep-14 15:58N 40°41' W 074°09'0 0.0
2017-Sep-14 15:28N 40°41' W 074°09'0 0.0
2017-Sep-14 14:58N 40°41' W 074°09'0 0.0
2017-Sep-14 14:28N 40°41' W 074°09'0 0.0
2017-Sep-14 13:58N 40°41' W 074°09'0 0.0
2017-Sep-14 13:28N 40°41' W 074°09'0 0.0
2017-Sep-14 12:58N 40°41' W 074°09'0 0.0
2017-Sep-14 12:28N 40°41' W 074°09'0 0.0
2017-Sep-14 11:58N 40°41' W 074°09'0 0.0
2017-Sep-14 11:28N 40°41' W 074°09'0 0.0
2017-Sep-14 10:58N 40°41' W 074°09'0 0.0
2017-Sep-14 10:28N 40°41' W 074°09'0 0.0
2017-Sep-14 09:58N 40°41' W 074°09'0 0.0
2017-Sep-14 09:28N 40°41' W 074°09'0 0.0
2017-Sep-14 08:58N 40°41' W 074°09'0 0.0
2017-Sep-14 08:28N 40°41' W 074°09'0 0.0
2017-Sep-14 07:58N 40°41' W 074°09'0 0.0
2017-Sep-14 07:28N 40°41' W 074°09'0 0.0
2017-Sep-14 06:58N 40°41' W 074°09'0 0.0
2017-Sep-14 06:28N 40°41' W 074°09'0 0.0
2017-Sep-14 05:58N 40°41' W 074°09'0 0.0
2017-Sep-14 05:28N 40°41' W 074°09'0 0.0
2017-Sep-14 04:58N 40°41' W 074°09'0 0.0
2017-Sep-14 04:28N 40°41' W 074°09'0 0.0
2017-Sep-14 03:58N 40°41' W 074°09'0 0.0
2017-Sep-14 03:31N 40°41' W 074°09'0 0.0
2017-Sep-14 03:01N 40°41' W 074°09'0 0.0
2017-Sep-14 02:31N 40°41' W 074°09'0 0.0
2017-Sep-14 02:00N 40°41' W 074°09'0 0.0
2017-Sep-14 01:30N 40°41' W 074°09'0 0.0
2017-Sep-14 01:00N 40°41' W 074°09'0 0.0
2017-Sep-14 00:27N 40°41' W 074°09'0 0.0
2017-Sep-14 00:00N 40°41' W 074°09'0 0.0
2017-Sep-13 23:30N 40°41' W 074°09'0 0.0
2017-Sep-13 23:00N 40°41' W 074°09'0 0.0
2017-Sep-13 22:30N 40°41' W 074°09'0 0.0
2017-Sep-13 22:00N 40°41' W 074°09'0 0.0
2017-Sep-13 21:30N 40°41' W 074°09'0 0.0
2017-Sep-13 21:00N 40°41' W 074°09'1 1.5
2017-Sep-13 20:30N 40°40' W 074°08'2 3.5
2017-Sep-13 20:00N 40°39' W 074°07'3 5.9
2017-Sep-13 19:30N 40°39' W 074°03'4 9.0
2017-Sep-13 19:01N 40°34' W 074°02'612.8
2017-Sep-13 18:30N 40°30' W 073°56'612.5
2017-Sep-13 18:00N 40°27' W 073°48'3 1.1
2017-Sep-13 15:45N 40°29' W 073°46'0 0.0
2017-Sep-13 15:30N 40°29' W 073°46'0 0.0
2017-Sep-13 15:00N 40°29' W 073°46'0 0.1
2017-Sep-13 14:30N 40°29' W 073°46'0 0.4
2017-Sep-13 14:00N 40°29' W 073°46'3 5.9
2017-Sep-13 13:31N 40°27' W 073°43'5 9.4
2017-Sep-13 13:00N 40°28' W 073°36'612.9
2017-Sep-13 12:30N 40°28' W 073°28'613.0
2017-Sep-13 12:00N 40°29' W 073°19'713.8
2017-Sep-13 11:30N 40°29' W 073°10'713.7
2017-Sep-13 11:00N 40°30' W 073°02'713.5
2017-Sep-13 10:30N 40°30' W 072°53'713.7
2017-Sep-13 10:00N 40°30' W 072°44'713.9
2017-Sep-13 09:30N 40°30' W 072°35'713.9
2017-Sep-13 09:00N 40°30' W 072°25'713.6
2017-Sep-13 08:30N 40°31' W 072°16'713.5
2017-Sep-13 08:01N 40°31' W 072°08'713.6
2017-Sep-13 07:30N 40°31' W 071°59'713.3
2017-Sep-13 07:00N 40°31' W 071°50'713.5
2017-Sep-13 06:30N 40°32' W 071°41'713.6
2017-Sep-13 06:00N 40°32' W 071°32'713.5
2017-Sep-13 05:30N 40°32' W 071°23'713.5
2017-Sep-13 05:00N 40°32' W 071°14'713.2
2017-Sep-13 04:30N 40°32' W 071°06'713.7
2017-Sep-13 04:00N 40°32' W 070°57'713.7
2017-Sep-13 03:30N 40°33' W 070°48'713.4
2017-Sep-13 03:00N 40°33' W 070°39'713.6
2017-Sep-13 02:30N 40°33' W 070°30'4 8.0
2017-Sep-13 02:00N 40°33' W 070°25'815.4
2017-Sep-13 01:30N 40°33' W 070°14'815.9
2017-Sep-13 01:01N 40°34' W 070°04'816.2
2017-Sep-13 00:31N 40°34' W 069°53'815.8
2017-Sep-13 00:01N 40°34' W 069°43'815.4
2017-Sep-12 23:30N 40°34' W 069°33'715.0
2017-Sep-12 23:00N 40°34' W 069°23'815.0
2017-Sep-12 22:31N 40°34' W 069°13'814.9
2017-Sep-12 21:58N 40°35' W 069°02'  

Dump ship's entire track history